.
WxDataArchive / Data Records for 2016-02-26
2016-02-25 February 2016 2016-02-27

Data Records for Friday, 26 February 2016

Time	Temp	Chill	HIndex	Humid	Dewpt	 Wind 	HiWind	WindDir	Rain 	Barom
-----	----	-----	------	-----	-----	------	------	-------	-----	-----
00:00	27.5	27.5	27.5	65	17.3	1	4	338	0.00	30.109 
00:05	27.3	27.3	27.3	65	17.1	0	3	338	0.00	30.109 
00:10	27.3	27.3	27.3	65	17.1	0	2	338	0.00	30.109 
00:15	27.3	27.3	27.3	65	17.1	1	3	338	0.00	30.111 
00:20	27.3	27.3	27.3	64	16.8	1	5	338	0.00	30.111 
00:25	27.3	27.3	27.3	65	17.1	1	3	292	0.00	30.111 
00:30	27.3	27.3	27.3	65	17.1	1	4	292	0.00	30.109 
00:35	27.2	27.2	27.2	65	17.0	1	3	292	0.00	30.109 
00:40	27.2	27.2	27.2	65	17.0	0	2	292	0.00	30.109 
00:45	27.2	27.2	27.2	65	17.0	0	2	292	0.00	30.111 
00:50	27.2	27.2	27.2	66	17.4	0	2	292	0.00	30.111 
00:55	27.0	27.0	27.0	66	17.2	0	3	292	0.00	30.111 
01:00	27.0	27.0	27.0	66	17.2	0	3	292	0.00	30.113 
01:05	27.0	27.0	27.0	66	17.2	0	4	292	0.00	30.113 
01:10	27.0	27.0	27.0	66	17.2	0	3	292	0.00	30.113 
01:15	27.0	27.0	27.0	66	17.2	0	2	292	0.00	30.113 
01:20	27.0	27.0	27.0	66	17.2	0	2	292	0.00	30.113 
01:25	27.0	27.0	27.0	67	17.5	0	1	292	0.00	30.113 
01:30	27.0	27.0	27.0	67	17.5	0	2	292	0.00	30.119 
01:35	27.0	27.0	27.0	67	17.5	0	1	292	0.00	30.119 
01:40	27.0	27.0	27.0	67	17.5	0	3	292	0.00	30.119 
01:45	27.0	27.0	27.0	68	17.9	0	1	292	0.00	30.123 
01:50	27.0	27.0	27.0	68	17.9	0	2	292	0.00	30.123 
01:55	27.0	27.0	27.0	68	17.9	0	2	292	0.00	30.123 
02:00	27.0	27.0	27.0	68	17.9	0	1	292	0.00	30.126 
02:05	27.0	27.0	27.0	68	17.9	0	1	292	0.00	30.126 
02:10	27.0	27.0	27.0	68	17.9	0	3	292	0.00	30.126 
02:15	26.9	26.9	26.9	68	17.8	0	2	292	0.00	30.131 
02:20	26.9	26.9	26.9	69	18.1	0	2	292	0.00	30.131 
02:25	26.9	26.9	26.9	69	18.1	0	2	292	0.00	30.131 
02:30	26.9	26.9	26.9	70	18.4	0	1	292	0.00	30.132 
02:35	26.9	26.9	26.9	70	18.4	0	2	292	0.00	30.132 
02:40	26.9	26.9	26.9	70	18.4	0	2	292	0.00	30.132 
02:45	26.9	26.9	26.9	71	18.8	0	1	292	0.00	30.134 
02:50	26.9	26.9	26.9	72	19.1	0	1	292	0.00	30.134 
02:55	26.9	26.9	26.9	72	19.1	0	2	292	0.00	30.134 
03:00	26.9	26.9	26.9	73	19.4	0	1	292	0.00	30.136 
03:05	26.7	26.7	26.7	73	19.2	0	1	292	0.00	30.136 
03:10	26.7	26.7	26.7	73	19.2	0	3	292	0.00	30.136 
03:15	26.7	26.7	26.7	73	19.2	0	1	292	0.00	30.137 
03:20	26.7	26.7	26.7	73	19.2	0	3	292	0.00	30.137 
03:25	26.7	26.7	26.7	73	19.2	0	1	292	0.00	30.137 
03:30	26.7	26.7	26.7	74	19.5	0	1	292	0.00	30.138 
03:35	26.7	26.7	26.7	74	19.5	0	2	292	0.00	30.138 
03:40	26.6	26.6	26.6	74	19.5	0	3	292	0.00	30.138 
03:45	26.6	26.6	26.6	74	19.5	0	1	292	0.00	30.140 
03:50	26.6	26.6	26.6	75	19.8	0	1	292	0.00	30.140 
03:55	26.6	26.6	26.6	74	19.5	0	2	292	0.00	30.140 
04:00	26.6	26.6	26.6	75	19.8	0	3	292	0.00	30.145 
04:05	26.6	26.6	26.6	75	19.8	0	3	292	0.00	30.145 
04:10	26.6	26.6	26.6	75	19.8	0	2	292	0.00	30.145 
04:15	26.6	26.6	26.6	75	19.8	0	2	292	0.00	30.141 
04:20	26.4	26.4	26.4	75	19.6	0	2	292	0.00	30.141 
04:25	26.4	26.4	26.4	75	19.6	1	3	292	0.00	30.141 
04:30	26.4	26.4	26.4	75	19.6	0	2	292	0.00	30.153 
04:35	26.4	26.4	26.4	75	19.6	0	2	292	0.00	30.153 
04:40	26.6	26.6	26.6	75	19.8	0	3	292	0.00	30.153 
04:45	26.6	26.6	26.6	75	19.8	0	2	292	0.00	30.156 
04:50	26.6	26.6	26.6	75	19.8	0	1	292	0.00	30.156 
04:55	26.6	26.6	26.6	75	19.8	0	2	292	0.00	30.156 
05:00	26.6	26.6	26.6	75	19.8	0	1	292	0.00	30.161 
05:05	26.6	26.6	26.6	75	19.8	0	2	292	0.00	30.161 
05:10	26.6	26.6	26.6	75	19.8	0	1	292	0.00	30.161 
05:15	26.6	26.6	26.6	75	19.8	0	2	292	0.00	30.169 
05:20	26.6	26.6	26.6	75	19.8	0	1	292	0.00	30.169 
05:25	26.6	26.6	26.6	75	19.8	0	1	292	0.00	30.169 
05:30	26.6	26.6	26.6	75	19.8	0	1	292	0.00	30.172 
05:35	26.6	26.6	26.6	75	19.8	0	2	292	0.00	30.172 
05:40	26.6	26.6	26.6	74	19.5	0	2	292	0.00	30.172 
05:45	26.6	26.6	26.6	74	19.5	0	1	292	0.00	30.176 
05:50	26.6	26.6	26.6	74	19.5	0	1	292	0.00	30.176 
05:55	26.6	26.6	26.6	74	19.5	0	1	292	0.00	30.176 
06:00	26.6	26.6	26.6	73	19.1	0	1	292	0.00	30.183 
06:05	26.6	26.6	26.6	73	19.1	0	1	292	0.00	30.183 
06:10	26.6	26.6	26.6	73	19.1	0	1	292	0.00	30.183 
06:15	26.6	26.6	26.6	73	19.1	0	1	292	0.00	30.186 
06:20	26.6	26.6	26.6	73	19.1	0	1	292	0.00	30.186 
06:25	26.6	26.6	26.6	73	19.1	0	1	292	0.00	30.186 
06:30	26.6	26.6	26.6	73	19.1	0	1	292	0.00	30.189 
06:35	26.6	26.6	26.6	73	19.1	0	0	---	0.00	30.189 
06:40	26.7	26.7	26.7	74	19.5	0	1	292	0.00	30.189 
06:45	26.6	26.6	26.6	74	19.5	0	0	---	0.00	30.190 
06:50	26.6	26.6	26.6	74	19.5	0	0	---	0.00	30.190 
06:55	26.6	26.6	26.6	74	19.5	0	1	292	0.00	30.190 
07:00	26.6	26.6	26.6	74	19.5	0	0	---	0.00	30.192 
07:05	26.6	26.6	26.6	74	19.5	0	1	292	0.00	30.192 
07:10	26.6	26.6	26.6	74	19.5	0	0	---	0.00	30.192 
07:15	26.6	26.6	26.6	74	19.5	0	1	292	0.00	30.193 
07:20	26.7	26.7	26.7	74	19.5	0	1	292	0.00	30.193 
07:25	26.7	26.7	26.7	74	19.5	0	1	292	0.00	30.193 
07:30	26.7	26.7	26.7	74	19.5	0	0	---	0.00	30.201 
07:35	26.7	26.7	26.7	74	19.5	0	0	---	0.00	30.201 
07:40	26.7	26.7	26.7	74	19.5	0	0	---	0.00	30.201 
07:45	26.9	26.9	26.9	74	19.7	0	0	---	0.00	30.204 
07:50	26.9	26.9	26.9	74	19.7	0	0	---	0.00	30.204 
07:55	26.9	26.9	26.9	74	19.7	0	1	292	0.00	30.204 
08:00	27.0	27.0	27.0	73	19.5	0	1	292	0.00	30.210 
08:05	27.2	27.2	27.2	73	19.7	0	1	292	0.00	30.210 
08:10	27.2	27.2	27.2	72	19.4	0	1	292	0.00	30.210 
08:15	27.3	27.3	27.3	72	19.5	0	1	292	0.00	30.219 
08:20	27.5	27.5	27.5	71	19.4	0	1	292	0.00	30.219 
08:25	27.6	27.6	27.6	71	19.4	0	1	292	0.00	30.219 
08:30	27.8	27.8	27.8	71	19.6	0	1	292	0.00	30.221 
08:35	27.8	27.8	27.8	71	19.6	0	2	292	0.00	30.221 
08:40	27.9	27.9	27.9	69	19.1	0	1	292	0.00	30.221 
08:45	27.9	27.9	27.9	69	19.1	0	1	292	0.00	30.231 
08:50	28.1	28.1	28.1	69	19.3	0	1	292	0.00	30.231 
08:55	28.2	28.2	28.2	69	19.4	0	2	292	0.00	30.231 
09:00	28.4	28.4	28.4	69	19.5	0	2	292	0.00	30.237 
09:05	28.5	28.5	28.5	69	19.6	0	2	292	0.00	30.237 
09:10	28.7	28.7	28.7	68	19.5	0	1	292	0.00	30.237 
09:15	28.8	28.8	28.8	69	19.9	0	1	292	0.00	30.242 
09:20	29.0	29.0	29.0	68	19.8	0	2	292	0.00	30.242 
09:25	29.1	29.1	29.1	68	19.9	0	1	292	0.00	30.242 
09:30	29.3	29.3	29.3	67	19.7	0	1	292	0.00	30.247 
09:35	29.3	29.3	29.3	67	19.7	0	3	292	0.00	30.247 
09:40	29.4	29.4	29.4	65	19.1	0	2	292	0.00	30.247 
09:45	29.4	29.4	29.4	66	19.5	0	2	292	0.00	30.249 
09:50	29.4	29.4	29.4	66	19.5	0	2	292	0.00	30.249 
09:55	29.7	29.7	29.7	67	20.1	0	2	292	0.00	30.249 
10:00	30.1	30.1	30.1	67	20.5	0	2	292	0.00	30.250 
10:05	30.3	30.3	30.3	67	20.7	1	3	292	0.00	30.250 
10:10	30.6	30.6	30.6	67	21.0	1	3	292	0.00	30.250 
10:15	30.7	30.7	30.7	68	21.4	1	3	292	0.00	30.252 
10:20	30.7	30.7	30.7	68	21.4	1	4	270	0.00	30.252 
10:25	30.9	30.9	30.9	68	21.6	0	2	270	0.00	30.252 
10:30	31.2	31.2	31.2	69	22.2	0	3	270	0.00	30.252 
10:35	31.3	31.3	31.3	68	22.0	1	4	270	0.00	30.252 
10:40	31.2	31.2	31.2	67	21.5	1	3	270	0.00	30.252 
10:45	31.2	31.2	31.2	66	21.2	1	4	270	0.00	30.252 
10:50	31.3	31.3	31.3	65	20.9	1	4	270	0.00	30.252 
10:55	31.2	31.2	31.2	64	20.5	0	2	270	0.00	30.252 
11:00	31.0	31.0	31.0	63	19.9	1	3	270	0.00	30.255 
11:05	30.9	30.9	30.9	65	20.5	0	2	270	0.00	30.255 
11:10	31.0	31.0	31.0	66	21.0	0	3	270	0.00	30.255 
11:15	31.0	31.0	31.0	63	19.9	1	4	315	0.00	30.257 
11:20	31.0	31.0	31.0	62	19.5	1	5	270	0.00	30.257 
11:25	31.2	31.2	31.2	62	19.7	0	2	270	0.00	30.257 
11:30	31.2	31.2	31.2	60	19.0	1	3	270	0.00	30.258 
11:35	31.5	31.5	31.5	62	20.0	0	3	270	0.00	30.258 
11:40	31.9	31.9	31.9	59	19.2	1	3	270	0.00	30.258 
11:45	31.8	31.8	31.8	59	19.1	0	2	270	0.00	30.252 
11:50	31.6	31.6	31.6	59	18.9	0	2	270	0.00	30.252 
11:55	31.5	31.5	31.5	58	18.4	1	4	292	0.00	30.252 
12:00	31.3	31.3	31.3	59	18.7	0	2	292	0.00	30.257 
12:05	31.2	31.2	31.2	61	19.3	0	3	292	0.00	30.257 
12:10	31.3	31.3	31.3	62	19.8	0	2	292	0.00	30.257 
12:15	31.6	31.6	31.6	64	20.8	1	3	292	0.00	30.254 
12:20	31.6	31.6	31.6	61	19.7	0	2	292	0.00	30.254 
12:25	32.1	32.1	32.1	60	19.8	1	2	292	0.00	30.254 
12:30	32.1	32.1	32.1	58	19.0	1	4	315	0.00	30.250 
12:35	32.4	32.4	32.4	56	18.5	1	3	315	0.00	30.250 
12:40	32.5	32.5	32.5	56	18.6	0	3	315	0.00	30.250 
12:45	32.5	32.5	32.5	54	17.7	1	3	270	0.00	30.244 
12:50	32.7	32.7	32.7	55	18.3	1	4	270	0.00	30.244 
12:55	32.8	32.8	32.8	56	18.9	1	5	338	0.00	30.244 
13:00	32.7	32.7	32.7	54	17.9	2	4	270	0.00	30.238 
13:05	32.7	32.7	32.7	54	17.9	1	2	315	0.00	30.238 
13:10	32.9	32.9	32.9	54	18.1	1	3	270	0.00	30.238 
13:15	33.1	33.1	33.1	54	18.3	1	4	270	0.00	30.230 
13:20	33.4	33.4	33.4	54	18.6	1	4	270	0.00	30.230 
13:25	33.7	33.7	33.7	53	18.4	1	4	292	0.00	30.230 
13:30	33.5	33.5	33.5	52	17.8	2	4	292	0.00	30.221 
13:35	33.2	33.2	33.2	50	16.6	1	4	292	0.00	30.221 
13:40	33.1	33.1	33.1	50	16.5	2	4	292	0.00	30.221 
13:45	33.1	33.1	33.1	50	16.5	1	3	270	0.00	30.217 
13:50	33.2	33.2	33.2	50	16.6	1	4	315	0.00	30.217 
13:55	33.4	33.4	33.4	52	17.7	1	4	292	0.00	30.217 
14:00	33.4	33.4	33.4	52	17.7	1	5	292	0.00	30.214 
14:05	33.2	33.2	33.2	50	16.6	1	4	292	0.00	30.214 
14:10	33.1	33.1	33.1	49	16.0	1	4	270	0.00	30.214 
14:15	33.1	33.1	33.1	49	16.0	1	4	270	0.00	30.209 
14:20	33.2	33.2	33.2	50	16.6	1	3	292	0.00	30.209 
14:25	33.4	33.4	33.4	51	17.2	1	4	270	0.00	30.209 
14:30	33.4	33.4	33.4	50	16.8	2	4	270	0.00	30.207 
14:35	33.1	33.1	33.1	51	17.0	1	3	270	0.00	30.207 
14:40	33.1	33.1	33.1	52	17.4	0	3	270	0.00	30.207 
14:45	32.8	32.8	32.8	53	17.6	2	4	270	0.00	30.206 
14:50	32.7	32.7	32.7	54	17.9	0	3	270	0.00	30.206 
14:55	32.7	32.7	32.7	54	17.9	1	3	270	0.00	30.206 
15:00	32.7	32.7	32.7	54	17.9	1	3	270	0.00	30.207 
15:05	32.7	32.7	32.7	53	17.5	1	4	270	0.00	30.207 
15:10	32.7	32.7	32.7	53	17.5	1	4	315	0.00	30.207 
15:15	32.7	32.7	32.7	53	17.5	0	3	292	0.00	30.202 
15:20	32.7	32.7	32.7	54	17.9	0	2	270	0.00	30.202 
15:25	32.7	32.7	32.7	52	17.0	1	3	270	0.00	30.202 
15:30	32.7	32.7	32.7	52	17.0	1	3	270	0.00	30.200 
15:35	32.7	32.7	32.7	50	16.1	1	2	270	0.00	30.200 
15:40	32.5	32.5	32.5	50	16.0	0	1	270	0.00	30.200 
15:45	32.7	32.7	32.7	52	17.0	0	3	270	0.00	30.199 
15:50	32.7	32.7	32.7	50	16.1	0	2	270	0.00	30.199 
15:55	32.5	32.5	32.5	51	16.4	0	1	270	0.00	30.199 
16:00	32.5	32.5	32.5	50	16.0	1	3	270	0.00	30.193 
16:05	32.5	32.5	32.5	51	16.4	1	3	270	0.00	30.193 
16:10	32.5	32.5	32.5	50	16.0	0	2	270	0.00	30.193 
16:15	32.7	32.7	32.7	51	16.6	0	2	270	0.00	30.192 
16:20	32.7	32.7	32.7	50	16.1	1	4	270	0.00	30.192 
16:25	32.5	32.5	32.5	51	16.4	1	4	270	0.00	30.192 
16:30	32.5	32.5	32.5	51	16.4	1	4	270	0.00	30.192 
16:35	32.4	32.4	32.4	52	16.8	1	4	292	0.00	30.192 
16:40	32.4	32.4	32.4	52	16.8	1	4	292	0.00	30.192 
16:45	32.2	32.2	32.2	52	16.6	1	4	338	0.00	30.192 
16:50	32.2	32.2	32.2	52	16.6	1	2	338	0.00	30.192 
16:55	32.2	32.2	32.2	52	16.6	0	2	338	0.00	30.192 
17:00	32.2	32.2	32.2	51	16.1	0	2	315	0.00	30.187 
17:05	32.2	32.2	32.2	52	16.6	1	3	315	0.00	30.187 
17:10	32.2	32.2	32.2	51	16.1	0	2	315	0.00	30.187 
17:15	32.2	32.2	32.2	51	16.1	0	2	315	0.00	30.187 
17:20	32.2	32.2	32.2	51	16.1	2	5	315	0.00	30.187 
17:25	32.2	32.2	32.2	50	15.7	1	4	270	0.00	30.187 
17:30	32.1	32.1	32.1	49	15.1	0	3	270	0.00	30.184 
17:35	32.1	32.1	32.1	49	15.1	1	5	270	0.00	30.184 
17:40	32.1	32.1	32.1	49	15.1	0	3	270	0.00	30.184 
17:45	31.9	31.9	31.9	49	14.9	1	3	270	0.00	30.187 
17:50	31.9	31.9	31.9	49	14.9	1	2	270	0.00	30.187 
17:55	31.8	31.8	31.8	49	14.8	0	2	270	0.00	30.187 
18:00	31.8	31.8	31.8	50	15.3	0	2	270	0.00	30.187 
18:05	31.6	31.6	31.6	50	15.1	1	3	270	0.00	30.187 
18:10	31.6	31.6	31.6	50	15.1	0	3	270	0.00	30.187 
18:15	31.5	31.5	31.5	51	15.5	0	1	270	0.00	30.187 
18:20	31.5	31.5	31.5	51	15.5	0	2	270	0.00	30.187 
18:25	31.3	31.3	31.3	51	15.3	0	3	270	0.00	30.187 
18:30	31.3	31.3	31.3	51	15.3	0	2	270	0.00	30.187 
18:35	31.2	31.2	31.2	52	15.6	0	1	270	0.00	30.187 
18:40	31.2	31.2	31.2	51	15.2	1	3	270	0.00	30.187 
18:45	31.2	31.2	31.2	52	15.6	0	1	270	0.00	30.187 
18:50	31.0	31.0	31.0	52	15.5	0	1	270	0.00	30.187 
18:55	31.0	31.0	31.0	52	15.5	0	1	270	0.00	30.187 
19:00	31.0	31.0	31.0	53	15.9	0	1	270	0.00	30.188 
19:05	31.0	31.0	31.0	53	15.9	0	2	270	0.00	30.188 
19:10	31.0	31.0	31.0	53	15.9	0	1	270	0.00	30.188 
19:15	30.9	30.9	30.9	53	15.8	0	4	270	0.00	30.189 
19:20	30.9	30.9	30.9	54	16.2	0	1	270	0.00	30.189 
19:25	30.9	30.9	30.9	54	16.2	0	2	270	0.00	30.189 
19:30	30.9	30.9	30.9	54	16.2	0	2	270	0.00	30.189 
19:35	30.7	30.7	30.7	53	15.6	1	3	270	0.00	30.189 
19:40	30.7	30.7	30.7	53	15.6	0	3	270	0.00	30.189 
19:45	30.7	30.7	30.7	53	15.6	0	2	270	0.00	30.190 
19:50	30.7	30.7	30.7	53	15.6	1	3	270	0.00	30.190 
19:55	30.7	30.7	30.7	53	15.6	0	4	270	0.00	30.190 
20:00	30.6	30.6	30.6	53	15.5	0	1	270	0.00	30.188 
20:05	30.6	30.6	30.6	53	15.5	0	3	270	0.00	30.188 
20:10	30.6	30.6	30.6	53	15.5	0	2	270	0.00	30.188 
20:15	30.6	30.6	30.6	54	16.0	0	1	270	0.00	30.184 
20:20	30.6	30.6	30.6	54	16.0	0	1	270	0.00	30.184 
20:25	30.4	30.4	30.4	55	16.2	0	3	270	0.00	30.184 
20:30	30.4	30.4	30.4	55	16.2	0	2	270	0.00	30.181 
20:35	30.4	30.4	30.4	56	16.6	0	1	270	0.00	30.181 
20:40	30.4	30.4	30.4	56	16.6	0	2	270	0.00	30.181 
20:45	30.3	30.3	30.3	56	16.5	0	2	270	0.00	30.176 
20:50	30.3	30.3	30.3	57	16.9	0	1	270	0.00	30.176 
20:55	30.3	30.3	30.3	57	16.9	0	1	270	0.00	30.176 
21:00	30.3	30.3	30.3	58	17.3	0	1	270	0.00	30.172 
21:05	30.1	30.1	30.1	58	17.1	0	1	270	0.00	30.172 
21:10	30.1	30.1	30.1	58	17.1	0	1	270	0.00	30.172 
21:15	30.1	30.1	30.1	59	17.5	0	1	270	0.00	30.168 
21:20	30.1	30.1	30.1	60	17.9	0	1	270	0.00	30.168 
21:25	30.0	30.0	30.0	61	18.2	0	1	270	0.00	30.168 
21:30	30.0	30.0	30.0	61	18.2	0	1	270	0.00	30.170 
21:35	30.0	30.0	30.0	62	18.6	0	0	---	0.00	30.170 
21:40	29.8	29.8	29.8	62	18.4	0	1	270	0.00	30.170 
21:45	29.8	29.8	29.8	63	18.8	0	2	270	0.00	30.169 
21:50	29.8	29.8	29.8	64	19.1	0	2	270	0.00	30.169 
21:55	29.8	29.8	29.8	64	19.1	0	1	270	0.00	30.169 
22:00	29.8	29.8	29.8	65	19.5	0	1	270	0.00	30.165 
22:05	29.8	29.8	29.8	65	19.5	0	1	270	0.00	30.165 
22:10	29.8	29.8	29.8	66	19.8	0	1	270	0.00	30.165 
22:15	29.8	29.8	29.8	66	19.8	0	1	270	0.00	30.164 
22:20	29.8	29.8	29.8	67	20.2	0	3	270	0.00	30.164 
22:25	29.8	29.8	29.8	67	20.2	0	2	270	0.00	30.164 
22:30	29.8	29.8	29.8	67	20.2	0	1	270	0.00	30.164 
22:35	29.8	29.8	29.8	67	20.2	0	2	270	0.00	30.164 
22:40	29.8	29.8	29.8	67	20.2	0	1	270	0.00	30.164 
22:45	30.0	30.0	30.0	67	20.4	0	2	270	0.00	30.162 
22:50	30.0	30.0	30.0	67	20.4	0	2	270	0.00	30.162 
22:55	30.0	30.0	30.0	67	20.4	0	1	270	0.00	30.162 
23:00	30.0	30.0	30.0	67	20.4	0	2	270	0.00	30.159 
23:05	30.0	30.0	30.0	67	20.4	0	0	---	0.00	30.159 
23:10	30.0	30.0	30.0	67	20.4	0	2	270	0.00	30.159 
23:15	30.0	30.0	30.0	67	20.4	0	1	270	0.00	30.158 
23:20	30.0	30.0	30.0	66	20.0	0	2	270	0.00	30.158 
23:25	30.0	30.0	30.0	66	20.0	0	1	270	0.00	30.158 
23:30	30.0	30.0	30.0	67	20.4	0	1	270	0.00	30.154 
23:35	30.0	30.0	30.0	66	20.0	0	2	270	0.00	30.154 
23:40	30.0	30.0	30.0	66	20.0	0	1	270	0.00	30.154 
23:45	30.0	30.0	30.0	67	20.4	0	2	270	0.00	30.153 
23:50	30.0	30.0	30.0	66	20.0	0	1	270	0.00	30.153 
23:55	30.0	30.0	30.0	66	20.0	0	1	270	0.00	30.153 

CoCoRaHS
IN-AL-39
A2 Web Hosting
Creative Commons License
GoDaddy
search engine by freefind advanced

loaded 2018-11-13 16:58:49 • last modified 2010-11-18 10:43:29
Privacy PolicyDisclaimer
• wx.awcolley.com is powered by PmWiki v.2002016 •
• all content (unless otherwise noted) © 2018 A W Colley